sensor_id;sensor_type;location;lat;lon;timestamp;pressure;altitude;pressure_sealevel;temperature;humidity
75745;BME280;64359;51.366;-0.222;2023-09-18T00:00:33;100105.67;;;24.51;60.13
75745;BME280;64359;51.366;-0.222;2023-09-18T00:01:38;100112.27;;;24.51;60.18
75745;BME280;64359;51.366;-0.222;2023-09-18T00:02:43;100112.14;;;24.51;60.15
75745;BME280;64359;51.366;-0.222;2023-09-18T00:03:47;100107.02;;;24.51;60.17
75745;BME280;64359;51.366;-0.222;2023-09-18T00:04:51;100100.20;;;24.50;60.18
75745;BME280;64359;51.366;-0.222;2023-09-18T00:05:56;100097.14;;;24.50;60.18
75745;BME280;64359;51.366;-0.222;2023-09-18T00:07:00;100085.76;;;24.46;60.23
75745;BME280;64359;51.366;-0.222;2023-09-18T00:08:05;100080.29;;;24.48;60.10
75745;BME280;64359;51.366;-0.222;2023-09-18T00:09:09;100075.30;;;24.48;60.15
75745;BME280;64359;51.366;-0.222;2023-09-18T00:10:16;100069.79;;;24.47;60.18
75745;BME280;64359;51.366;-0.222;2023-09-18T00:11:20;100072.77;;;24.47;60.13
75745;BME280;64359;51.366;-0.222;2023-09-18T00:12:25;100061.18;;;24.45;60.03
75745;BME280;64359;51.366;-0.222;2023-09-18T00:13:29;100048.16;;;24.45;60.08
75745;BME280;64359;51.366;-0.222;2023-09-18T00:14:33;100030.59;;;24.43;60.07
75745;BME280;64359;51.366;-0.222;2023-09-18T00:15:38;100027.01;;;24.42;60.05
75745;BME280;64359;51.366;-0.222;2023-09-18T00:16:44;100033.17;;;24.41;59.99
75745;BME280;64359;51.366;-0.222;2023-09-18T00:17:48;100045.26;;;24.40;60.07
75745;BME280;64359;51.366;-0.222;2023-09-18T00:18:52;100052.19;;;24.39;60.08
75745;BME280;64359;51.366;-0.222;2023-09-18T00:19:56;100048.25;;;24.38;60.15
75745;BME280;64359;51.366;-0.222;2023-09-18T00:21:01;100042.44;;;24.37;60.14
75745;BME280;64359;51.366;-0.222;2023-09-18T00:22:05;100039.80;;;24.37;60.04
75745;BME280;64359;51.366;-0.222;2023-09-18T00:23:11;100039.35;;;24.35;60.20
75745;BME280;64359;51.366;-0.222;2023-09-18T00:24:15;100040.74;;;24.34;60.16
75745;BME280;64359;51.366;-0.222;2023-09-18T00:25:20;100039.05;;;24.33;60.27
75745;BME280;64359;51.366;-0.222;2023-09-18T00:26:25;100029.20;;;24.30;60.30
75745;BME280;64359;51.366;-0.222;2023-09-18T00:27:29;100028.47;;;24.31;60.15
75745;BME280;64359;51.366;-0.222;2023-09-18T00:28:35;100026.77;;;24.30;60.28
75745;BME280;64359;51.366;-0.222;2023-09-18T00:29:39;100023.66;;;24.30;60.28
75745;BME280;64359;51.366;-0.222;2023-09-18T00:30:49;100022.74;;;24.30;60.32
75745;BME280;64359;51.366;-0.222;2023-09-18T00:31:53;100015.88;;;24.30;60.41
75745;BME280;64359;51.366;-0.222;2023-09-18T00:32:57;100016.27;;;24.30;60.37
75745;BME280;64359;51.366;-0.222;2023-09-18T00:34:02;100022.02;;;24.30;60.26
75745;BME280;64359;51.366;-0.222;2023-09-18T00:35:07;100016.77;;;24.30;60.26
75745;BME280;64359;51.366;-0.222;2023-09-18T00:36:11;100017.73;;;24.30;60.28
75745;BME280;64359;51.366;-0.222;2023-09-18T00:37:16;100013.58;;;24.30;60.28
75745;BME280;64359;51.366;-0.222;2023-09-18T00:38:21;100015.48;;;24.29;60.13
75745;BME280;64359;51.366;-0.222;2023-09-18T00:39:25;100014.05;;;24.29;60.24
75745;BME280;64359;51.366;-0.222;2023-09-18T00:40:30;100016.06;;;24.28;60.26
75745;BME280;64359;51.366;-0.222;2023-09-18T00:41:35;100018.23;;;24.28;60.40
75745;BME280;64359;51.366;-0.222;2023-09-18T00:42:39;100015.19;;;24.27;60.30
75745;BME280;64359;51.366;-0.222;2023-09-18T00:43:44;100016.45;;;24.26;60.45
75745;BME280;64359;51.366;-0.222;2023-09-18T00:44:48;100017.75;;;24.26;60.34
75745;BME280;64359;51.366;-0.222;2023-09-18T00:45:52;100016.33;;;24.26;60.26
75745;BME280;64359;51.366;-0.222;2023-09-18T00:46:57;100014.12;;;24.25;60.34
75745;BME280;64359;51.366;-0.222;2023-09-18T00:48:02;100014.30;;;24.24;60.20
75745;BME280;64359;51.366;-0.222;2023-09-18T00:49:06;100015.16;;;24.23;60.31
75745;BME280;64359;51.366;-0.222;2023-09-18T00:50:13;100014.16;;;24.22;60.15
75745;BME280;64359;51.366;-0.222;2023-09-18T00:51:18;100015.17;;;24.22;60.23
75745;BME280;64359;51.366;-0.222;2023-09-18T00:52:23;100011.84;;;24.21;60.33
75745;BME280;64359;51.366;-0.222;2023-09-18T00:53:28;100008.70;;;24.20;60.20
75745;BME280;64359;51.366;-0.222;2023-09-18T00:54:34;100005.29;;;24.18;60.32
75745;BME280;64359;51.366;-0.222;2023-09-18T00:55:39;100000.56;;;24.18;60.32
75745;BME280;64359;51.366;-0.222;2023-09-18T00:56:43;99995.42;;;24.17;60.34
75745;BME280;64359;51.366;-0.222;2023-09-18T00:57:48;99990.52;;;24.18;60.40
75745;BME280;64359;51.366;-0.222;2023-09-18T00:58:53;99990.36;;;24.17;60.38
75745;BME280;64359;51.366;-0.222;2023-09-18T00:59:57;99985.70;;;24.18;60.51
75745;BME280;64359;51.366;-0.222;2023-09-18T01:01:02;99984.66;;;24.18;60.58
75745;BME280;64359;51.366;-0.222;2023-09-18T01:02:07;99979.33;;;24.18;60.40
75745;BME280;64359;51.366;-0.222;2023-09-18T01:03:12;99977.25;;;24.18;60.41
75745;BME280;64359;51.366;-0.222;2023-09-18T01:04:16;99978.79;;;24.18;60.26
75745;BME280;64359;51.366;-0.222;2023-09-18T01:05:21;99971.76;;;24.18;60.42
75745;BME280;64359;51.366;-0.222;2023-09-18T01:06:26;99971.55;;;24.18;60.19
75745;BME280;64359;51.366;-0.222;2023-09-18T01:07:33;99964.39;;;24.18;60.37
75745;BME280;64359;51.366;-0.222;2023-09-18T01:08:37;99962.27;;;24.17;60.18
75745;BME280;64359;51.366;-0.222;2023-09-18T01:09:42;99961.44;;;24.17;60.34
75745;BME280;64359;51.366;-0.222;2023-09-18T01:10:56;99962.02;;;24.16;60.39
75745;BME280;64359;51.366;-0.222;2023-09-18T01:12:08;99955.09;;;24.16;60.24
75745;BME280;64359;51.366;-0.222;2023-09-18T01:13:17;99952.56;;;24.14;60.33
75745;BME280;64359;51.366;-0.222;2023-09-18T01:14:29;99951.60;;;24.13;60.37
75745;BME280;64359;51.366;-0.222;2023-09-18T01:15:39;99946.33;;;24.12;60.45
75745;BME280;64359;51.366;-0.222;2023-09-18T01:16:53;99943.73;;;24.12;60.41
75745;BME280;64359;51.366;-0.222;2023-09-18T01:17:58;99941.15;;;24.11;60.50
75745;BME280;64359;51.366;-0.222;2023-09-18T01:19:03;99936.22;;;24.09;60.45
75745;BME280;64359;51.366;-0.222;2023-09-18T01:20:10;99931.96;;;24.09;60.33
75745;BME280;64359;51.366;-0.222;2023-09-18T01:21:15;99926.48;;;24.08;60.54
75745;BME280;64359;51.366;-0.222;2023-09-18T01:22:20;99931.48;;;24.07;60.58
75745;BME280;64359;51.366;-0.222;2023-09-18T01:23:25;99931.73;;;24.07;60.68
75745;BME280;64359;51.366;-0.222;2023-09-18T01:24:30;99932.55;;;24.06;60.69
75745;BME280;64359;51.366;-0.222;2023-09-18T01:25:34;99931.59;;;24.05;60.60
75745;BME280;64359;51.366;-0.222;2023-09-18T01:26:38;99932.09;;;24.06;60.73
75745;BME280;64359;51.366;-0.222;2023-09-18T01:27:42;99931.84;;;24.06;60.64
75745;BME280;64359;51.366;-0.222;2023-09-18T01:28:47;99920.09;;;24.05;60.65
75745;BME280;64359;51.366;-0.222;2023-09-18T01:29:51;99917.71;;;24.07;60.62
75745;BME280;64359;51.366;-0.222;2023-09-18T01:30:56;99908.80;;;24.07;60.72
75745;BME280;64359;51.366;-0.222;2023-09-18T01:32:00;99898.12;;;24.07;60.65
75745;BME280;64359;51.366;-0.222;2023-09-18T01:33:05;99891.76;;;24.07;60.62
75745;BME280;64359;51.366;-0.222;2023-09-18T01:34:10;99887.33;;;24.06;60.61
75745;BME280;64359;51.366;-0.222;2023-09-18T01:35:16;99880.96;;;24.04;60.53
75745;BME280;64359;51.366;-0.222;2023-09-18T01:36:21;99878.46;;;24.06;60.60
75745;BME280;64359;51.366;-0.222;2023-09-18T01:37:28;99863.90;;;24.06;60.65
75745;BME280;64359;51.366;-0.222;2023-09-18T01:38:33;99857.97;;;24.05;60.51
75745;BME280;64359;51.366;-0.222;2023-09-18T01:39:39;99852.16;;;24.04;60.65
75745;BME280;64359;51.366;-0.222;2023-09-18T01:40:44;99850.63;;;24.03;60.47
75745;BME280;64359;51.366;-0.222;2023-09-18T01:41:48;99843.27;;;24.03;60.67
75745;BME280;64359;51.366;-0.222;2023-09-18T01:42:54;99839.13;;;24.03;60.64
75745;BME280;64359;51.366;-0.222;2023-09-18T01:43:58;99835.84;;;24.02;60.65
75745;BME280;64359;51.366;-0.222;2023-09-18T01:45:03;99831.73;;;24.01;60.59
75745;BME280;64359;51.366;-0.222;2023-09-18T01:46:08;99825.80;;;24.01;60.58
75745;BME280;64359;51.366;-0.222;2023-09-18T01:47:15;99817.45;;;24.00;60.52
75745;BME280;64359;51.366;-0.222;2023-09-18T01:48:20;99815.20;;;23.99;60.62
75745;BME280;64359;51.366;-0.222;2023-09-18T01:49:29;99813.42;;;23.98;60.68
75745;BME280;64359;51.366;-0.222;2023-09-18T01:50:34;99812.59;;;23.97;60.57
75745;BME280;64359;51.366;-0.222;2023-09-18T01:51:40;99820.69;;;23.97;60.69
75745;BME280;64359;51.366;-0.222;2023-09-18T01:52:44;99822.42;;;23.96;60.73
75745;BME280;64359;51.366;-0.222;2023-09-18T01:53:49;99836.89;;;23.96;60.71
75745;BME280;64359;51.366;-0.222;2023-09-18T01:54:53;99845.22;;;23.96;60.69
75745;BME280;64359;51.366;-0.222;2023-09-18T01:55:57;99850.73;;;23.97;60.82
75745;BME280;64359;51.366;-0.222;2023-09-18T01:57:02;99846.92;;;23.97;60.96
75745;BME280;64359;51.366;-0.222;2023-09-18T01:58:07;99839.80;;;23.97;60.59
75745;BME280;64359;51.366;-0.222;2023-09-18T01:59:12;99835.80;;;23.96;60.59
75745;BME280;64359;51.366;-0.222;2023-09-18T02:00:17;99837.50;;;23.97;60.74
75745;BME280;64359;51.366;-0.222;2023-09-18T02:01:22;99841.52;;;23.94;60.70
75745;BME280;64359;51.366;-0.222;2023-09-18T02:02:26;99847.55;;;23.96;60.60
75745;BME280;64359;51.366;-0.222;2023-09-18T02:03:32;99850.66;;;23.96;60.72
75745;BME280;64359;51.366;-0.222;2023-09-18T02:04:37;99841.88;;;23.96;60.69
75745;BME280;64359;51.366;-0.222;2023-09-18T02:05:42;99839.25;;;23.95;60.68
75745;BME280;64359;51.366;-0.222;2023-09-18T02:06:49;99832.65;;;23.94;60.71
75745;BME280;64359;51.366;-0.222;2023-09-18T02:07:54;99831.06;;;23.94;60.52
75745;BME280;64359;51.366;-0.222;2023-09-18T02:08:59;99834.64;;;23.93;60.59
75745;BME280;64359;51.366;-0.222;2023-09-18T02:10:04;99839.23;;;23.93;60.85
75745;BME280;64359;51.366;-0.222;2023-09-18T02:11:09;99841.67;;;23.92;60.67
75745;BME280;64359;51.366;-0.222;2023-09-18T02:12:14;99840.73;;;23.91;60.66
75745;BME280;64359;51.366;-0.222;2023-09-18T02:13:20;99840.11;;;23.90;60.54
75745;BME280;64359;51.366;-0.222;2023-09-18T02:14:25;99839.94;;;23.90;60.72
75745;BME280;64359;51.366;-0.222;2023-09-18T02:15:29;99839.95;;;23.89;60.70
75745;BME280;64359;51.366;-0.222;2023-09-18T02:16:36;99833.50;;;23.88;60.66
75745;BME280;64359;51.366;-0.222;2023-09-18T02:17:40;99827.70;;;23.87;60.64
75745;BME280;64359;51.366;-0.222;2023-09-18T02:18:45;99826.88;;;23.86;60.72
75745;BME280;64359;51.366;-0.222;2023-09-18T02:19:49;99828.01;;;23.86;60.77
75745;BME280;64359;51.366;-0.222;2023-09-18T02:20:54;99831.30;;;23.87;60.71
75745;BME280;64359;51.366;-0.222;2023-09-18T02:21:58;99831.13;;;23.87;60.73
75745;BME280;64359;51.366;-0.222;2023-09-18T02:23:05;99833.27;;;23.87;60.69
75745;BME280;64359;51.366;-0.222;2023-09-18T02:24:09;99832.81;;;23.87;60.96
75745;BME280;64359;51.366;-0.222;2023-09-18T02:25:14;99832.34;;;23.87;60.72
75745;BME280;64359;51.366;-0.222;2023-09-18T02:26:18;99832.05;;;23.87;60.56
75745;BME280;64359;51.366;-0.222;2023-09-18T02:27:22;99834.23;;;23.87;60.70
75745;BME280;64359;51.366;-0.222;2023-09-18T02:28:27;99845.66;;;23.87;60.61
75745;BME280;64359;51.366;-0.222;2023-09-18T02:29:31;99840.27;;;23.86;60.48
75745;BME280;64359;51.366;-0.222;2023-09-18T02:30:35;99839.48;;;23.86;60.59
75745;BME280;64359;51.366;-0.222;2023-09-18T02:31:40;99839.86;;;23.86;60.56
75745;BME280;64359;51.366;-0.222;2023-09-18T02:32:45;99839.61;;;23.85;60.63
75745;BME280;64359;51.366;-0.222;2023-09-18T02:33:49;99838.20;;;23.85;60.49
75745;BME280;64359;51.366;-0.222;2023-09-18T02:34:53;99836.48;;;23.84;60.40
75745;BME280;64359;51.366;-0.222;2023-09-18T02:35:58;99835.33;;;23.83;60.51
75745;BME280;64359;51.366;-0.222;2023-09-18T02:37:02;99838.30;;;23.83;60.47
75745;BME280;64359;51.366;-0.222;2023-09-18T02:38:06;99836.94;;;23.82;60.60
75745;BME280;64359;51.366;-0.222;2023-09-18T02:39:11;99839.25;;;23.81;60.44
75745;BME280;64359;51.366;-0.222;2023-09-18T02:40:15;99838.07;;;23.80;60.36
75745;BME280;64359;51.366;-0.222;2023-09-18T02:41:19;99833.72;;;23.79;60.51
75745;BME280;64359;51.366;-0.222;2023-09-18T02:42:24;99832.73;;;23.78;60.45
75745;BME280;64359;51.366;-0.222;2023-09-18T02:43:28;99830.11;;;23.77;60.54
75745;BME280;64359;51.366;-0.222;2023-09-18T02:44:32;99829.63;;;23.75;60.43
75745;BME280;64359;51.366;-0.222;2023-09-18T02:45:37;99826.51;;;23.75;60.36
75745;BME280;64359;51.366;-0.222;2023-09-18T02:46:41;99824.73;;;23.73;60.28
75745;BME280;64359;51.366;-0.222;2023-09-18T02:47:46;99826.53;;;23.73;60.51
75745;BME280;64359;51.366;-0.222;2023-09-18T02:48:50;99822.48;;;23.72;60.44
75745;BME280;64359;51.366;-0.222;2023-09-18T02:49:54;99823.48;;;23.73;60.64
75745;BME280;64359;51.366;-0.222;2023-09-18T02:50:59;99822.89;;;23.73;60.45
75745;BME280;64359;51.366;-0.222;2023-09-18T02:52:03;99826.20;;;23.73;60.56
75745;BME280;64359;51.366;-0.222;2023-09-18T02:53:12;99824.61;;;23.73;60.42
75745;BME280;64359;51.366;-0.222;2023-09-18T02:54:20;99821.45;;;23.72;60.43
75745;BME280;64359;51.366;-0.222;2023-09-18T02:55:24;99819.33;;;23.72;60.37
75745;BME280;64359;51.366;-0.222;2023-09-18T02:56:29;99815.43;;;23.71;60.35
75745;BME280;64359;51.366;-0.222;2023-09-18T02:57:33;99818.66;;;23.72;60.45
75745;BME280;64359;51.366;-0.222;2023-09-18T02:58:37;99817.49;;;23.71;60.39
75745;BME280;64359;51.366;-0.222;2023-09-18T02:59:42;99813.56;;;23.70;60.35
75745;BME280;64359;51.366;-0.222;2023-09-18T03:00:47;99813.23;;;23.70;60.44
75745;BME280;64359;51.366;-0.222;2023-09-18T03:01:52;99811.23;;;23.69;60.24
75745;BME280;64359;51.366;-0.222;2023-09-18T03:02:56;99812.03;;;23.66;60.34
75745;BME280;64359;51.366;-0.222;2023-09-18T03:04:00;99812.23;;;23.67;60.26
75745;BME280;64359;51.366;-0.222;2023-09-18T03:05:06;99809.33;;;23.65;60.20
75745;BME280;64359;51.366;-0.222;2023-09-18T03:06:11;99815.91;;;23.66;60.21
75745;BME280;64359;51.366;-0.222;2023-09-18T03:07:16;99816.93;;;23.65;60.33
75745;BME280;64359;51.366;-0.222;2023-09-18T03:08:20;99815.77;;;23.64;60.51
75745;BME280;64359;51.366;-0.222;2023-09-18T03:09:24;99819.16;;;23.63;60.34
75745;BME280;64359;51.366;-0.222;2023-09-18T03:10:32;99819.30;;;23.62;60.54
75745;BME280;64359;51.366;-0.222;2023-09-18T03:11:36;99818.90;;;23.61;60.38
75745;BME280;64359;51.366;-0.222;2023-09-18T03:12:42;99820.61;;;23.61;60.30
75745;BME280;64359;51.366;-0.222;2023-09-18T03:13:47;99820.05;;;23.60;60.44
75745;BME280;64359;51.366;-0.222;2023-09-18T03:14:51;99820.35;;;23.59;60.52
75745;BME280;64359;51.366;-0.222;2023-09-18T03:15:55;99824.63;;;23.58;60.52
75745;BME280;64359;51.366;-0.222;2023-09-18T03:17:00;99824.25;;;23.58;60.49
75745;BME280;64359;51.366;-0.222;2023-09-18T03:18:05;99824.59;;;23.58;60.60
75745;BME280;64359;51.366;-0.222;2023-09-18T03:19:10;99823.52;;;23.60;60.78
75745;BME280;64359;51.366;-0.222;2023-09-18T03:20:14;99819.00;;;23.60;60.53
75745;BME280;64359;51.366;-0.222;2023-09-18T03:21:18;99815.86;;;23.60;60.81
75745;BME280;64359;51.366;-0.222;2023-09-18T03:22:23;99817.27;;;23.60;60.53
75745;BME280;64359;51.366;-0.222;2023-09-18T03:23:27;99814.39;;;23.60;60.43
75745;BME280;64359;51.366;-0.222;2023-09-18T03:24:32;99811.85;;;23.60;60.40
75745;BME280;64359;51.366;-0.222;2023-09-18T03:25:37;99811.35;;;23.60;60.36
75745;BME280;64359;51.366;-0.222;2023-09-18T03:26:41;99812.27;;;23.60;60.45
75745;BME280;64359;51.366;-0.222;2023-09-18T03:27:45;99812.74;;;23.59;60.49
75745;BME280;64359;51.366;-0.222;2023-09-18T03:28:50;99815.20;;;23.59;60.50
75745;BME280;64359;51.366;-0.222;2023-09-18T03:29:54;99812.95;;;23.59;60.37
75745;BME280;64359;51.366;-0.222;2023-09-18T03:30:58;99811.41;;;23.58;60.43
75745;BME280;64359;51.366;-0.222;2023-09-18T03:32:03;99815.10;;;23.58;60.43
75745;BME280;64359;51.366;-0.222;2023-09-18T03:33:07;99814.36;;;23.56;60.23
75745;BME280;64359;51.366;-0.222;2023-09-18T03:34:12;99813.19;;;23.56;60.41
75745;BME280;64359;51.366;-0.222;2023-09-18T03:35:16;99812.88;;;23.53;60.52
75745;BME280;64359;51.366;-0.222;2023-09-18T03:36:23;99817.30;;;23.55;60.45
75745;BME280;64359;51.366;-0.222;2023-09-18T03:37:28;99821.31;;;23.53;60.45
75745;BME280;64359;51.366;-0.222;2023-09-18T03:38:32;99820.67;;;23.52;60.51
75745;BME280;64359;51.366;-0.222;2023-09-18T03:39:38;99817.45;;;23.51;60.63
75745;BME280;64359;51.366;-0.222;2023-09-18T03:40:42;99820.31;;;23.50;60.50
75745;BME280;64359;51.366;-0.222;2023-09-18T03:41:47;99817.31;;;23.50;60.63
75745;BME280;64359;51.366;-0.222;2023-09-18T03:42:51;99817.02;;;23.49;60.38
75745;BME280;64359;51.366;-0.222;2023-09-18T03:43:56;99819.83;;;23.49;60.49
75745;BME280;64359;51.366;-0.222;2023-09-18T03:45:00;99822.13;;;23.47;60.35
75745;BME280;64359;51.366;-0.222;2023-09-18T03:46:06;99820.20;;;23.47;60.49
75745;BME280;64359;51.366;-0.222;2023-09-18T03:47:11;99820.54;;;23.47;60.58
75745;BME280;64359;51.366;-0.222;2023-09-18T03:48:15;99817.60;;;23.47;60.56
75745;BME280;64359;51.366;-0.222;2023-09-18T03:49:19;99820.44;;;23.47;60.53
75745;BME280;64359;51.366;-0.222;2023-09-18T03:50:24;99818.93;;;23.48;60.62
75745;BME280;64359;51.366;-0.222;2023-09-18T03:51:30;99817.08;;;23.49;60.37
75745;BME280;64359;51.366;-0.222;2023-09-18T03:52:34;99817.91;;;23.49;60.43
75745;BME280;64359;51.366;-0.222;2023-09-18T03:53:39;99815.58;;;23.48;60.32
75745;BME280;64359;51.366;-0.222;2023-09-18T03:54:43;99814.03;;;23.47;60.42
75745;BME280;64359;51.366;-0.222;2023-09-18T03:55:49;99816.52;;;23.47;60.44
75745;BME280;64359;51.366;-0.222;2023-09-18T03:56:53;99813.84;;;23.47;60.54
75745;BME280;64359;51.366;-0.222;2023-09-18T03:57:58;99818.15;;;23.47;60.51
75745;BME280;64359;51.366;-0.222;2023-09-18T03:59:02;99816.82;;;23.46;60.40
75745;BME280;64359;51.366;-0.222;2023-09-18T04:00:08;99818.75;;;23.45;60.23
75745;BME280;64359;51.366;-0.222;2023-09-18T04:01:14;99816.87;;;23.42;60.25
75745;BME280;64359;51.366;-0.222;2023-09-18T04:02:18;99822.20;;;23.44;60.29
75745;BME280;64359;51.366;-0.222;2023-09-18T04:03:23;99821.45;;;23.43;60.35
75745;BME280;64359;51.366;-0.222;2023-09-18T04:04:27;99826.56;;;23.43;60.33
75745;BME280;64359;51.366;-0.222;2023-09-18T04:05:32;99827.11;;;23.43;60.32
75745;BME280;64359;51.366;-0.222;2023-09-18T04:06:43;99825.77;;;23.42;60.26
75745;BME280;64359;51.366;-0.222;2023-09-18T04:07:48;99827.27;;;23.42;60.29
75745;BME280;64359;51.366;-0.222;2023-09-18T04:08:52;99824.61;;;23.40;60.41
75745;BME280;64359;51.366;-0.222;2023-09-18T04:09:56;99828.58;;;23.40;60.38
75745;BME280;64359;51.366;-0.222;2023-09-18T04:11:01;99830.35;;;23.39;60.49
75745;BME280;64359;51.366;-0.222;2023-09-18T04:12:07;99831.57;;;23.38;60.44
75745;BME280;64359;51.366;-0.222;2023-09-18T04:13:12;99833.34;;;23.37;60.50
75745;BME280;64359;51.366;-0.222;2023-09-18T04:14:17;99837.88;;;23.36;60.45
75745;BME280;64359;51.366;-0.222;2023-09-18T04:15:22;99841.40;;;23.36;60.36
75745;BME280;64359;51.366;-0.222;2023-09-18T04:16:26;99839.61;;;23.34;60.37
75745;BME280;64359;51.366;-0.222;2023-09-18T04:17:31;99842.88;;;23.34;60.44
75745;BME280;64359;51.366;-0.222;2023-09-18T04:18:36;99838.36;;;23.34;60.55
75745;BME280;64359;51.366;-0.222;2023-09-18T04:19:40;99842.95;;;23.35;60.60
75745;BME280;64359;51.366;-0.222;2023-09-18T04:20:46;99838.77;;;23.35;60.68
75745;BME280;64359;51.366;-0.222;2023-09-18T04:21:50;99837.59;;;23.36;60.63
75745;BME280;64359;51.366;-0.222;2023-09-18T04:23:21;99838.63;;;23.36;60.76
75745;BME280;64359;51.366;-0.222;2023-09-18T04:24:26;99834.38;;;23.35;60.80
75745;BME280;64359;51.366;-0.222;2023-09-18T04:25:31;99833.34;;;23.35;60.82
75745;BME280;64359;51.366;-0.222;2023-09-18T04:26:35;99834.59;;;23.35;60.66
75745;BME280;64359;51.366;-0.222;2023-09-18T04:27:41;99828.87;;;23.35;60.65
75745;BME280;64359;51.366;-0.222;2023-09-18T04:28:45;99828.48;;;23.35;60.73
75745;BME280;64359;51.366;-0.222;2023-09-18T04:29:49;99823.98;;;23.35;60.54
75745;BME280;64359;51.366;-0.222;2023-09-18T04:30:53;99826.73;;;23.35;60.48
75745;BME280;64359;51.366;-0.222;2023-09-18T04:31:58;99825.86;;;23.34;60.69
75745;BME280;64359;51.366;-0.222;2023-09-18T04:33:03;99828.08;;;23.34;60.56
75745;BME280;64359;51.366;-0.222;2023-09-18T04:34:07;99826.80;;;23.33;60.63
75745;BME280;64359;51.366;-0.222;2023-09-18T04:35:11;99826.42;;;23.33;60.80
75745;BME280;64359;51.366;-0.222;2023-09-18T04:36:16;99829.44;;;23.32;60.58
75745;BME280;64359;51.366;-0.222;2023-09-18T04:37:20;99833.13;;;23.32;60.64
75745;BME280;64359;51.366;-0.222;2023-09-18T04:38:25;99831.54;;;23.31;60.63
75745;BME280;64359;51.366;-0.222;2023-09-18T04:39:29;99831.46;;;23.31;60.84
75745;BME280;64359;51.366;-0.222;2023-09-18T04:40:36;99827.27;;;23.30;60.68
75745;BME280;64359;51.366;-0.222;2023-09-18T04:41:41;99829.02;;;23.28;60.69
75745;BME280;64359;51.366;-0.222;2023-09-18T04:42:45;99822.92;;;23.28;60.74
75745;BME280;64359;51.366;-0.222;2023-09-18T04:43:50;99821.88;;;23.28;60.78
75745;BME280;64359;51.366;-0.222;2023-09-18T04:44:55;99823.65;;;23.27;60.97
75745;BME280;64359;51.366;-0.222;2023-09-18T04:45:59;99821.36;;;23.26;60.75
75745;BME280;64359;51.366;-0.222;2023-09-18T04:47:05;99823.79;;;23.26;60.94
75745;BME280;64359;51.366;-0.222;2023-09-18T04:48:09;99821.96;;;23.27;61.01
75745;BME280;64359;51.366;-0.222;2023-09-18T04:49:13;99822.19;;;23.27;61.05
75745;BME280;64359;51.366;-0.222;2023-09-18T04:50:18;99822.80;;;23.27;61.02
75745;BME280;64359;51.366;-0.222;2023-09-18T04:51:23;99825.77;;;23.28;60.98
75745;BME280;64359;51.366;-0.222;2023-09-18T04:52:27;99827.47;;;23.30;60.91
75745;BME280;64359;51.366;-0.222;2023-09-18T04:53:32;99826.96;;;23.29;61.13
75745;BME280;64359;51.366;-0.222;2023-09-18T04:54:36;99829.64;;;23.30;60.91
75745;BME280;64359;51.366;-0.222;2023-09-18T04:55:40;99827.02;;;23.29;61.07
75745;BME280;64359;51.366;-0.222;2023-09-18T04:56:45;99828.65;;;23.29;60.98
75745;BME280;64359;51.366;-0.222;2023-09-18T04:57:49;99832.20;;;23.29;60.94
75745;BME280;64359;51.366;-0.222;2023-09-18T04:58:53;99829.73;;;23.28;61.06
75745;BME280;64359;51.366;-0.222;2023-09-18T04:59:58;99830.95;;;23.28;61.06
75745;BME280;64359;51.366;-0.222;2023-09-18T05:01:02;99829.66;;;23.28;61.05
75745;BME280;64359;51.366;-0.222;2023-09-18T05:02:07;99829.87;;;23.27;60.87
75745;BME280;64359;51.366;-0.222;2023-09-18T05:03:13;99828.16;;;23.27;61.04
75745;BME280;64359;51.366;-0.222;2023-09-18T05:04:17;99830.34;;;23.27;61.04
75745;BME280;64359;51.366;-0.222;2023-09-18T05:05:22;99830.22;;;23.26;61.03
75745;BME280;64359;51.366;-0.222;2023-09-18T05:06:26;99832.52;;;23.25;61.02
75745;BME280;64359;51.366;-0.222;2023-09-18T05:07:31;99831.37;;;23.25;61.03
75745;BME280;64359;51.366;-0.222;2023-09-18T05:08:36;99831.83;;;23.24;61.16
75745;BME280;64359;51.366;-0.222;2023-09-18T05:09:40;99832.48;;;23.24;61.22
75745;BME280;64359;51.366;-0.222;2023-09-18T05:10:44;99832.52;;;23.23;61.09
75745;BME280;64359;51.366;-0.222;2023-09-18T05:11:50;99831.23;;;23.22;61.24
75745;BME280;64359;51.366;-0.222;2023-09-18T05:12:54;99828.57;;;23.22;61.11
75745;BME280;64359;51.366;-0.222;2023-09-18T05:14:01;99821.71;;;23.21;61.23
75745;BME280;64359;51.366;-0.222;2023-09-18T05:15:07;99818.02;;;23.22;61.27
75745;BME280;64359;51.366;-0.222;2023-09-18T05:16:12;99817.27;;;23.22;61.46
75745;BME280;64359;51.366;-0.222;2023-09-18T05:17:17;99818.10;;;23.23;61.52
75745;BME280;64359;51.366;-0.222;2023-09-18T05:18:22;99815.01;;;23.23;61.52
75745;BME280;64359;51.366;-0.222;2023-09-18T05:19:26;99814.84;;;23.23;61.25
75745;BME280;64359;51.366;-0.222;2023-09-18T05:20:33;99816.14;;;23.22;61.20
75745;BME280;64359;51.366;-0.222;2023-09-18T05:21:38;99809.14;;;23.19;61.31
75745;BME280;64359;51.366;-0.222;2023-09-18T05:22:42;99818.02;;;23.22;61.35
75745;BME280;64359;51.366;-0.222;2023-09-18T05:23:47;99817.52;;;23.22;61.25
75745;BME280;64359;51.366;-0.222;2023-09-18T05:24:51;99820.02;;;23.21;61.10
75745;BME280;64359;51.366;-0.222;2023-09-18T05:25:55;99820.17;;;23.21;61.10
75745;BME280;64359;51.366;-0.222;2023-09-18T05:27:00;99821.52;;;23.21;61.11
75745;BME280;64359;51.366;-0.222;2023-09-18T05:28:05;99821.48;;;23.19;61.19
75745;BME280;64359;51.366;-0.222;2023-09-18T05:29:09;99822.91;;;23.20;61.13
75745;BME280;64359;51.366;-0.222;2023-09-18T05:30:17;99822.99;;;23.19;60.97
75745;BME280;64359;51.366;-0.222;2023-09-18T05:31:24;99817.34;;;23.18;61.10
75745;BME280;64359;51.366;-0.222;2023-09-18T05:32:29;99817.59;;;23.17;61.09
75745;BME280;64359;51.366;-0.222;2023-09-18T05:33:34;99818.94;;;23.17;61.04
75745;BME280;64359;51.366;-0.222;2023-09-18T05:34:38;99813.27;;;23.16;61.29
75745;BME280;64359;51.366;-0.222;2023-09-18T05:35:43;99812.69;;;23.15;61.09
75745;BME280;64359;51.366;-0.222;2023-09-18T05:36:48;99812.08;;;23.14;60.94
75745;BME280;64359;51.366;-0.222;2023-09-18T05:37:53;99812.70;;;23.14;61.15
75745;BME280;64359;51.366;-0.222;2023-09-18T05:38:59;99811.55;;;23.13;61.23